Time;durP1;ratioP1;P1;durP2;ratioP2;P2;SDS_P1;SDS_P2;PMS_P1;PMS_P2;Temp;Humidity;BMP_temperature;BMP_pressure;BME280_temperature;BME280_humidity;BME280_pressure;Samples;Min_cycle;Max_cycle;Signal;HPM_P1;HPM_P2
2022/05/20 00:01:48;;;;;;;11.80;10.60;;;15.70;99.90;;;;;;7340512;19;107364;-82
2022/05/20 00:04:15;;;;;;;12.15;10.45;;;15.80;99.90;;;;;;7338685;19;110312;-82
2022/05/20 00:06:43;;;;;;;16.08;10.15;;;15.80;99.90;;;;;;7341765;19;111950;-82
2022/05/20 00:09:10;;;;;;;15.13;10.85;;;15.70;99.90;;;;;;7336906;19;112233;-82
2022/05/20 00:11:37;;;;;;;14.25;11.80;;;15.80;99.90;;;;;;7334963;19;111770;-82
2022/05/20 00:14:05;;;;;;;13.35;12.05;;;15.70;99.90;;;;;;7334772;19;115123;-82
2022/05/20 00:16:35;;;;;;;15.05;12.88;;;15.80;99.90;;;;;;7336328;19;111088;-82
2022/05/20 00:19:06;;;;;;;12.90;11.57;;;15.70;99.90;;;;;;7336148;19;111388;-81
2022/05/20 00:21:39;;;;;;;19.80;12.55;;;15.70;99.90;;;;;;7335369;19;111752;-81
2022/05/20 00:24:07;;;;;;;16.05;12.88;;;15.70;99.90;;;;;;7335731;19;111838;-81
2022/05/20 00:26:34;;;;;;;14.85;12.02;;;15.70;99.90;;;;;;7333608;19;111801;-82
2022/05/20 00:29:01;;;;;;;12.52;10.98;;;15.60;99.90;;;;;;7341918;19;112947;-82
2022/05/20 00:31:28;;;;;;;13.90;10.45;;;15.60;99.90;;;;;;7334243;19;110791;-81
2022/05/20 00:33:55;;;;;;;12.25;9.40;;;15.60;99.90;;;;;;7335832;19;114902;-82
2022/05/20 00:36:22;;;;;;;12.80;9.40;;;15.50;99.90;;;;;;7338039;19;111732;-82
2022/05/20 00:38:49;;;;;;;10.73;9.23;;;15.50;99.90;;;;;;7339561;19;110483;-82
2022/05/20 00:41:17;;;;;;;11.52;9.50;;;15.50;99.90;;;;;;7338978;19;108224;-82
2022/05/20 00:43:49;;;;;;;10.55;9.52;;;15.50;99.90;;;;;;7336357;19;109026;-81
2022/05/20 00:46:22;;;;;;;11.30;9.77;;;15.60;99.90;;;;;;7337258;19;108711;-82
2022/05/20 00:49:07;;;;;;;12.50;10.68;;;15.60;99.90;;;;;;7339640;19;110333;-82
2022/05/20 00:51:45;;;;;;;13.07;10.70;;;15.60;99.90;;;;;;7341415;19;110284;-82
2022/05/20 00:54:27;;;;;;;13.68;12.20;;;15.60;99.90;;;;;;7334813;19;111779;-82
2022/05/20 00:57:11;;;;;;;15.90;13.23;;;15.60;99.90;;;;;;7335299;19;110090;-82
2022/05/20 00:59:43;;;;;;;16.98;13.07;;;15.60;99.90;;;;;;7333610;19;111878;-82
2022/05/20 01:02:17;;;;;;;16.02;13.05;;;15.50;99.90;;;;;;7332700;19;114990;-82
2022/05/20 01:04:52;;;;;;;14.90;12.23;;;15.50;99.90;;;;;;7334509;19;111264;-82
2022/05/20 01:07:19;;;;;;;18.23;13.20;;;15.50;99.90;;;;;;7334404;19;111796;-82
2022/05/20 01:09:46;;;;;;;21.05;15.73;;;15.60;99.90;;;;;;7334118;19;112362;-82
2022/05/20 01:12:14;;;;;;;19.77;13.82;;;15.60;99.90;;;;;;7334304;19;111351;-82
2022/05/20 01:14:41;;;;;;;31.45;19.00;;;15.60;99.90;;;;;;7335046;19;111586;-82
2022/05/20 01:17:09;;;;;;;25.52;19.63;;;15.60;99.90;;;;;;7334352;19;110929;-82
2022/05/20 01:19:40;;;;;;;21.85;16.98;;;15.50;99.90;;;;;;7332201;19;111448;-81
2022/05/20 01:22:10;;;;;;;23.60;16.83;;;15.50;99.90;;;;;;7331813;19;111538;-82
2022/05/20 01:24:37;;;;;;;20.60;16.52;;;15.50;99.90;;;;;;7334278;19;110705;-82
2022/05/20 01:27:05;;;;;;;18.33;15.15;;;15.60;99.90;;;;;;7333240;19;112584;-82
2022/05/20 01:29:33;;;;;;;18.27;16.23;;;15.60;99.90;;;;;;7332212;19;112013;-81
2022/05/20 01:32:00;;;;;;;21.40;17.50;;;15.60;99.90;;;;;;7334009;19;111812;-82
2022/05/20 01:34:27;;;;;;;21.98;17.13;;;15.60;99.90;;;;;;7333716;19;111488;-82
2022/05/20 01:36:54;;;;;;;24.27;16.65;;;15.60;99.90;;;;;;7338990;19;111494;-82
2022/05/20 01:39:21;;;;;;;24.77;17.05;;;15.60;99.90;;;;;;7335486;19;111506;-82
2022/05/20 01:42:06;;;;;;;23.63;16.52;;;15.60;99.90;;;;;;7338652;19;112097;-82
2022/05/20 01:45:14;;;;;;;24.45;19.55;;;15.60;99.90;;;;;;7340341;19;110799;-81
2022/05/20 01:47:47;;;;;;;21.55;17.15;;;15.50;99.90;;;;;;7336283;19;112212;-82
2022/05/20 01:50:21;;;;;;;23.52;18.60;;;15.50;99.90;;;;;;7337364;19;111752;-82
2022/05/20 01:53:13;;;;;;;37.08;24.17;;;15.50;99.90;;;;;;7337310;19;110138;-82
2022/05/20 01:55:55;;;;;;;29.88;21.60;;;15.50;99.90;;;;;;7337402;19;111672;-81
2022/05/20 01:58:31;;;;;;;30.27;21.30;;;15.30;99.90;;;;;;7342060;19;110774;-82
2022/05/20 02:01:02;;;;;;;24.65;18.65;;;15.30;99.90;;;;;;7337434;19;113371;-82
2022/05/20 02:03:41;;;;;;;25.13;17.30;;;15.30;99.90;;;;;;7336360;19;111074;-82
2022/05/20 02:06:31;;;;;;;27.27;18.55;;;15.30;99.90;;;;;;7337206;19;112147;-82
2022/05/20 02:09:09;;;;;;;31.92;20.92;;;15.30;99.90;;;;;;7335037;19;110487;-82
2022/05/20 02:11:38;;;;;;;;;;;15.30;99.90;;;;;;7337652;19;111796;-82
2022/05/20 02:14:27;;;;;;;30.67;21.50;;;15.30;99.90;;;;;;7343914;19;110018;-82
2022/05/20 02:17:15;;;;;;;37.90;25.35;;;15.30;99.90;;;;;;7337096;19;109952;-82
2022/05/20 02:20:04;;;;;;;40.47;28.30;;;15.30;99.90;;;;;;7335210;19;112440;-81
2022/05/20 02:22:36;;;;;;;42.05;28.48;;;15.20;99.90;;;;;;7339168;19;110381;-82
2022/05/20 02:25:06;;;;;;;45.83;28.35;;;15.00;99.90;;;;;;7336876;19;111080;-81
2022/05/20 02:27:44;;;;;;;34.70;23.67;;;15.00;99.90;;;;;;7335013;19;110691;-81
2022/05/20 02:30:15;;;;;;;33.50;24.83;;;15.00;99.90;;;;;;7340869;19;114808;-81
2022/05/20 02:32:49;;;;;;;31.55;22.33;;;15.00;99.90;;;;;;7339444;19;114993;-81
2022/05/20 02:35:16;;;;;;;28.38;22.30;;;15.00;99.90;;;;;;7336580;19;109983;-82
2022/05/20 02:37:43;;;;;;;34.78;24.95;;;15.10;99.90;;;;;;7338266;19;112671;-81
2022/05/20 02:40:13;;;;;;;29.35;23.05;;;15.10;99.90;;;;;;7338356;19;113539;-84
2022/05/20 02:42:40;;;;;;;31.02;22.77;;;15.20;99.90;;;;;;7337328;19;111590;-82
2022/05/20 02:45:09;;;;;;;35.63;25.85;;;15.20;99.90;;;;;;7345447;19;110421;-82
2022/05/20 02:47:36;;;;;;;43.45;29.35;;;15.20;99.90;;;;;;7338629;19;110803;-82
2022/05/20 02:50:10;;;;;;;43.25;28.40;;;15.20;99.90;;;;;;7336941;19;111131;-81
2022/05/20 02:52:37;;;;;;;36.55;25.73;;;15.10;99.90;;;;;;7338417;19;112144;-82
2022/05/20 02:55:05;;;;;;;38.38;24.70;;;15.10;99.90;;;;;;7338073;19;111678;-81
2022/05/20 02:57:33;;;;;;;32.70;24.35;;;15.10;99.90;;;;;;7337407;19;111137;-83
2022/05/20 03:05:34;;;;;;;33.15;24.63;;;15.20;99.90;;;;;;7329391;19;113012;-81
2022/05/20 03:08:01;;;;;;;31.38;23.00;;;15.20;99.90;;;;;;7341179;19;111552;-80
2022/05/20 03:10:32;;;;;;;41.70;25.80;;;15.20;99.90;;;;;;7334346;19;112865;-80
2022/05/20 03:13:01;;;;;;;36.40;26.00;;;15.20;99.90;;;;;;7337830;19;112806;-80
2022/05/20 03:15:28;;;;;;;35.03;24.55;;;15.20;99.90;;;;;;7333272;19;110573;-80
2022/05/20 03:17:56;;;;;;;33.75;24.17;;;15.10;99.90;;;;;;7336955;19;112021;-80
2022/05/20 03:20:23;;;;;;;36.45;25.40;;;15.20;99.90;;;;;;7335600;19;111433;-81
2022/05/20 03:22:50;;;;;;;38.05;25.52;;;15.20;99.90;;;;;;7337067;19;112267;-80
2022/05/20 03:25:20;;;;;;;43.85;27.55;;;15.10;99.90;;;;;;7336564;19;111544;-81
2022/05/20 03:27:48;;;;;;;42.55;29.83;;;15.10;99.90;;;;;;7336426;19;112522;-80
2022/05/20 03:30:16;;;;;;;36.55;25.73;;;15.00;99.90;;;;;;7343448;19;112210;-81
2022/05/20 03:32:43;;;;;;;37.95;25.05;;;15.00;99.90;;;;;;7335002;19;111361;-80
2022/05/20 03:35:12;;;;;;;38.47;25.02;;;15.00;99.90;;;;;;7336756;19;110115;-81
2022/05/20 03:37:39;;;;;;;40.22;27.70;;;15.00;99.90;;;;;;7335051;19;111769;-81
2022/05/20 03:40:07;;;;;;;61.40;36.88;;;15.00;99.90;;;;;;7336486;19;111802;-81
2022/05/20 03:42:34;;;;;;;61.00;37.42;;;15.00;99.90;;;;;;7334137;19;110824;-81
2022/05/20 03:45:01;;;;;;;58.85;36.55;;;15.00;99.90;;;;;;7332940;19;111811;-81
2022/05/20 03:47:28;;;;;;;68.10;38.35;;;15.00;99.90;;;;;;7335326;19;112064;-81
2022/05/20 03:49:56;;;;;;;64.00;37.80;;;15.00;99.90;;;;;;7335261;19;112167;-81
2022/05/20 03:52:23;;;;;;;67.90;39.08;;;15.00;99.90;;;;;;7341902;19;111141;-80
2022/05/20 03:54:50;;;;;;;64.30;40.88;;;14.90;99.90;;;;;;7336820;19;111468;-81
2022/05/20 03:57:17;;;;;;;65.50;38.35;;;15.00;99.90;;;;;;7333821;19;110392;-80
2022/05/20 03:59:44;;;;;;;60.83;37.50;;;15.00;99.90;;;;;;7334183;19;111788;-81
2022/05/20 04:02:12;;;;;;;61.78;37.53;;;15.00;99.90;;;;;;7334689;19;111422;-81
2022/05/20 04:04:43;;;;;;;58.92;37.05;;;15.00;99.90;;;;;;7337661;19;111974;-81
2022/05/20 04:07:10;;;;;;;59.83;35.95;;;15.10;99.90;;;;;;7335153;19;112359;-80
2022/05/20 04:09:37;;;;;;;57.38;36.45;;;15.10;99.90;;;;;;7336785;19;110473;-81
2022/05/20 04:12:07;;;;;;;75.38;42.45;;;15.10;99.90;;;;;;7339895;19;111733;-80
2022/05/20 04:14:34;;;;;;;68.32;41.83;;;15.10;99.90;;;;;;7336425;19;110747;-81
2022/05/20 04:17:03;;;;;;;72.70;43.03;;;15.10;99.90;;;;;;7338275;19;111336;-80
2022/05/20 04:19:33;;;;;;;75.75;43.70;;;15.10;99.90;;;;;;7335323;19;112136;-80
2022/05/20 04:22:05;;;;;;;70.32;41.67;;;15.10;99.90;;;;;;7337031;19;111845;-80
2022/05/20 04:24:33;;;;;;;68.28;38.78;;;15.10;99.90;;;;;;7333933;19;111634;-80
2022/05/20 04:27:00;;;;;;;66.10;38.25;;;15.20;99.90;;;;;;7333338;19;112368;-81
2022/05/20 04:29:27;;;;;;;62.95;38.92;;;15.20;99.90;;;;;;7335322;19;110982;-81
2022/05/20 04:31:54;;;;;;;75.25;44.33;;;15.20;99.90;;;;;;7335881;19;113768;-80
2022/05/20 04:34:22;;;;;;;80.25;42.58;;;15.30;99.90;;;;;;7338654;19;111857;-81
2022/05/20 04:36:49;;;;;;;73.55;42.00;;;15.20;99.90;;;;;;7336133;19;111594;-81
2022/05/20 04:39:16;;;;;;;82.18;45.47;;;15.20;99.90;;;;;;7334569;19;111981;-81
2022/05/20 04:47:19;;;;;;;77.03;44.80;;;15.30;99.90;;;;;;7335086;19;112922;-81
2022/05/20 04:49:47;;;;;;;76.97;43.88;;;15.30;99.90;;;;;;7335138;19;110264;-81
2022/05/20 04:52:15;;;;;;;82.85;46.78;;;15.30;99.90;;;;;;7334180;19;112246;-81
2022/05/20 04:54:50;;;;;;;77.05;44.03;;;15.20;99.90;;;;;;7332353;19;112273;-81
2022/05/20 04:57:45;;;;;;;81.35;43.90;;;15.20;99.90;;;;;;7339377;19;110173;-81
2022/05/20 05:00:19;;;;;;;79.50;43.92;;;15.30;99.90;;;;;;7335170;19;112020;-81
2022/05/20 05:02:47;;;;;;;79.75;43.80;;;15.30;99.90;;;;;;7333576;19;111289;-82
2022/05/20 05:05:17;;;;;;;77.55;42.50;;;15.50;99.90;;;;;;7332353;19;111966;-81
2022/05/20 05:07:49;;;;;;;85.68;45.75;;;15.60;99.90;;;;;;7333206;19;112277;-81
2022/05/20 05:10:25;;;;;;;85.80;47.83;;;15.60;99.90;;;;;;7333176;19;111112;-81
2022/05/20 05:12:52;;;;;;;88.43;46.47;;;15.50;99.90;;;;;;7333842;19;111633;-81
2022/05/20 05:15:20;;;;;;;89.30;48.83;;;15.50;99.90;;;;;;7333190;19;111802;-82
2022/05/20 05:20:33;;;;;;;95.47;50.25;;;15.50;99.90;;;;;;7336861;19;110489;-81
2022/05/20 05:23:01;;;;;;;95.90;48.60;;;15.50;99.90;;;;;;7333659;19;112102;-81
2022/05/20 05:25:31;;;;;;;84.05;48.30;;;15.60;99.90;;;;;;7333839;19;111787;-81
2022/05/20 05:27:58;;;;;;;88.03;48.95;;;15.70;99.90;;;;;;7333806;19;113800;-81
2022/05/20 05:30:26;;;;;;;84.93;46.80;;;15.70;99.90;;;;;;7331865;19;111978;-81
2022/05/20 05:32:53;;;;;;;82.47;47.22;;;15.70;99.90;;;;;;7334222;19;114901;-82
2022/05/20 05:35:23;;;;;;;85.57;48.60;;;15.70;99.90;;;;;;7333473;19;111770;-82
2022/05/20 05:37:51;;;;;;;83.57;46.88;;;15.70;99.90;;;;;;7332886;19;111010;-82
2022/05/20 05:40:21;;;;;;;87.95;47.17;;;15.80;99.90;;;;;;7333507;19;111359;-82
2022/05/20 05:42:48;;;;;;;96.05;47.70;;;16.00;99.90;;;;;;7335680;19;113042;-82
2022/05/20 05:45:22;;;;;;;85.70;46.90;;;16.10;99.90;;;;;;7333933;19;111534;-81
2022/05/20 05:47:55;;;;;;;87.40;50.03;;;16.10;99.90;;;;;;7334096;19;112551;-82
2022/05/20 05:50:23;;;;;;;80.57;47.47;;;16.20;99.90;;;;;;7333187;19;112818;-83
2022/05/20 05:53:05;;;;;;;77.43;46.08;;;16.30;99.90;;;;;;7332540;19;111273;-82
2022/05/20 05:55:32;;;;;;;78.20;47.22;;;16.40;99.90;;;;;;7328623;19;111830;-82
2022/05/20 05:58:00;;;;;;;90.28;49.38;;;16.40;99.90;;;;;;7332706;19;111600;-82
2022/05/20 06:00:27;;;;;;;85.85;49.20;;;16.50;99.90;;;;;;7332280;19;114774;-83
2022/05/20 06:02:54;;;;;;;86.35;47.45;;;16.50;99.90;;;;;;7333482;19;112122;-83
2022/05/20 06:05:21;;;;;;;88.38;48.35;;;16.50;99.90;;;;;;7335866;19;110623;-83
2022/05/20 06:07:49;;;;;;;95.25;47.63;;;16.70;99.90;;;;;;7332750;19;114338;-84
2022/05/20 06:10:16;;;;;;;86.60;47.83;;;16.80;99.90;;;;;;7332618;19;111709;-84
2022/05/20 06:12:43;;;;;;;81.35;47.13;;;16.90;99.90;;;;;;7331728;19;111868;-82
2022/05/20 06:15:15;;;;;;;90.95;50.28;;;16.90;99.90;;;;;;7330391;19;112147;-82
2022/05/20 06:17:42;;;;;;;84.63;47.90;;;16.90;99.90;;;;;;7330125;19;110155;-83
2022/05/20 06:20:10;;;;;;;82.07;48.00;;;17.00;99.90;;;;;;7331581;19;111449;-82
2022/05/20 06:22:38;;;;;;;78.90;46.65;;;17.10;99.90;;;;;;7334371;19;111931;-81
2022/05/20 06:25:05;;;;;;;90.32;48.17;;;17.10;99.90;;;;;;7342770;19;110618;-82
2022/05/20 06:27:33;;;;;;;80.53;46.70;;;17.20;99.90;;;;;;7340546;19;111878;-82
2022/05/20 06:30:01;;;;;;;80.10;45.90;;;17.40;99.90;;;;;;7341794;19;109884;-82
2022/05/20 06:32:28;;;;;;;78.32;46.00;;;17.50;99.90;;;;;;7341079;19;111375;-82
2022/05/20 06:40:27;;;;;;;67.70;40.45;;;17.80;99.90;;;;;;7341539;19;111651;-82
2022/05/20 06:42:54;;;;;;;71.88;38.70;;;17.90;99.90;;;;;;7340896;19;112027;-82
2022/05/20 06:45:21;;;;;;;65.55;36.25;;;18.00;99.90;;;;;;7341810;19;110156;-82
2022/05/20 06:47:48;;;;;;;71.72;37.78;;;18.20;99.90;;;;;;7347964;19;111840;-82
2022/05/20 06:50:15;;;;;;;63.97;34.05;;;18.40;99.90;;;;;;7342357;19;110464;-83
2022/05/20 06:52:42;;;;;;;63.95;35.17;;;18.50;99.90;;;;;;7341548;19;111706;-82
2022/05/20 06:55:10;;;;;;;57.72;34.35;;;18.60;99.90;;;;;;7342282;19;111878;-82
2022/05/20 06:57:39;;;;;;;64.95;34.30;;;18.70;99.90;;;;;;7340671;19;111682;-82
2022/05/20 07:00:11;;;;;;;60.38;31.80;;;18.80;99.90;;;;;;7341684;19;111544;-81
2022/05/20 07:02:40;;;;;;;48.53;30.45;;;18.90;99.90;;;;;;7341401;19;111364;-82
2022/05/20 07:05:09;;;;;;;56.97;30.08;;;18.90;99.90;;;;;;7340420;19;111101;-85
2022/05/20 07:07:36;;;;;;;46.33;29.58;;;19.00;99.90;;;;;;7340331;19;112933;-82
2022/05/20 07:10:05;;;;;;;54.22;29.05;;;19.10;99.90;;;;;;7346591;19;112098;-83
2022/05/20 07:12:33;;;;;;;44.33;27.02;;;19.20;99.90;;;;;;7342127;19;110809;-83
2022/05/20 07:15:01;;;;;;;47.38;25.33;;;19.20;99.90;;;;;;7338806;19;111109;-83
2022/05/20 07:17:34;;;;;;;41.03;24.20;;;19.20;99.90;;;;;;7340846;19;110132;-83
2022/05/20 07:20:03;;;;;;;45.22;23.77;;;19.30;99.90;;;;;;7337530;19;115101;-82
2022/05/20 07:22:30;;;;;;;49.88;24.77;;;19.30;99.90;;;;;;7337679;19;112009;-82
2022/05/20 07:24:57;;;;;;;43.45;25.10;;;19.40;99.90;;;;;;7338388;19;110511;-83
2022/05/20 07:27:25;;;;;;;40.25;22.33;;;19.50;99.90;;;;;;7339681;19;111315;-83
2022/05/20 07:29:52;;;;;;;40.03;23.88;;;19.60;99.90;;;;;;7342257;19;112116;-83
2022/05/20 07:32:28;;;;;;;51.05;26.05;;;19.60;99.90;;;;;;7345222;19;110239;-84
2022/05/20 07:35:04;;;;;;;32.45;22.40;;;19.70;99.90;;;;;;7337393;19;110731;-84
2022/05/20 07:37:32;;;;;;;29.90;22.30;;;19.80;99.90;;;;;;7340396;19;109943;-83
2022/05/20 07:40:00;;;;;;;27.48;20.42;;;19.80;99.90;;;;;;7337452;19;112045;-84
2022/05/20 07:42:27;;;;;;;26.20;20.25;;;19.80;99.90;;;;;;7341668;19;112160;-84
2022/05/20 07:44:55;;;;;;;31.67;19.58;;;19.70;99.90;;;;;;7337854;19;112110;-83
2022/05/20 07:47:24;;;;;;;35.60;20.35;;;19.70;99.90;;;;;;7340629;19;111733;-84
2022/05/20 07:49:54;;;;;;;29.58;19.70;;;19.80;99.90;;;;;;7341394;19;112134;-84
2022/05/20 07:55:09;;;;;;;23.38;18.08;;;20.00;99.90;;;;;;7346991;19;112113;-84
2022/05/20 07:57:39;;;;;;;27.10;17.92;;;20.00;99.90;;;;;;7339772;19;110224;-84
2022/05/20 08:00:09;;;;;;;23.65;16.55;;;20.00;99.90;;;;;;7340276;19;111560;-84
2022/05/20 08:02:36;;;;;;;19.80;15.65;;;19.90;99.90;;;;;;7340530;19;111973;-84
2022/05/20 08:05:11;;;;;;;23.55;14.95;;;19.90;99.90;;;;;;7337175;19;110774;-84
2022/05/20 08:07:44;;;;;;;18.65;14.07;;;19.90;99.90;;;;;;7340451;19;111787;-82
2022/05/20 08:10:21;;;;;;;15.48;13.15;;;19.90;99.90;;;;;;7338468;19;111159;-83
2022/05/20 08:12:48;;;;;;;;;;;19.90;99.90;;;;;;7339732;19;110137;-84
2022/05/20 08:15:17;;;;;;;18.40;12.80;;;19.80;99.90;;;;;;7345294;19;111435;-83
2022/05/20 08:17:44;;;;;;;19.95;11.90;;;19.80;99.90;;;;;;7343608;19;110633;-83
2022/05/20 08:20:25;;;;;;;13.25;10.77;;;19.90;99.90;;;;;;7334708;19;111314;-84
2022/05/20 08:22:53;;;;;;;11.10;9.90;;;20.00;99.90;;;;;;7338982;19;112142;-84
2022/05/20 08:25:22;;;;;;;12.82;10.10;;;20.00;99.90;;;;;;7341389;19;109030;-84
2022/05/20 08:27:50;;;;;;;12.77;9.43;;;20.00;99.90;;;;;;7337166;19;111459;-84
2022/05/20 08:30:22;;;;;;;13.23;9.35;;;20.10;99.90;;;;;;7342570;19;108549;-84
2022/05/20 08:32:49;;;;;;;18.15;9.90;;;20.20;99.90;;;;;;7342353;19;112307;-84
2022/05/20 08:35:16;;;;;;;14.75;9.50;;;20.30;99.90;;;;;;7341454;19;108063;-83
2022/05/20 08:37:46;;;;;;;11.60;9.57;;;20.40;99.90;;;;;;7347032;19;108085;-84
2022/05/20 08:40:47;;;;;;;17.85;9.93;;;20.60;99.90;;;;;;7340377;19;108324;-84
2022/05/20 08:43:14;;;;;;;18.10;10.50;;;20.80;99.90;;;;;;7341331;19;110252;-84
2022/05/20 08:45:41;;;;;;;22.98;10.63;;;21.00;99.90;;;;;;7337038;19;110315;-83
2022/05/20 08:48:11;;;;;;;16.40;10.52;;;21.20;99.90;;;;;;7337850;19;111424;-83
2022/05/20 08:50:52;;;;;;;14.80;10.77;;;21.30;99.90;;;;;;7340684;19;112288;-85
2022/05/20 08:53:25;;;;;;;21.58;11.52;;;21.30;99.90;;;;;;7338482;19;110465;-82
2022/05/20 08:55:52;;;;;;;17.17;10.65;;;21.30;99.90;;;;;;7335959;19;113191;-82
2022/05/20 08:58:24;;;;;;;17.75;11.68;;;21.50;99.90;;;;;;7336015;19;111801;-84
2022/05/20 09:00:51;;;;;;;15.27;11.45;;;21.50;99.90;;;;;;7341638;19;110349;-82
2022/05/20 09:03:18;;;;;;;19.48;11.00;;;21.40;99.90;;;;;;7337398;19;111868;-83
2022/05/20 09:05:46;;;;;;;15.15;10.85;;;21.30;99.90;;;;;;7336070;19;110322;-82
2022/05/20 09:08:21;;;;;;;14.20;10.50;;;21.40;99.90;;;;;;7338622;19;111507;-83
2022/05/20 09:10:54;;;;;;;13.10;10.52;;;21.60;99.90;;;;;;7338233;19;111850;-84
2022/05/20 09:16:23;;;;;;;18.00;10.88;;;21.80;99.90;;;;;;7337479;19;111420;-83
2022/05/20 09:19:12;;;;;;;19.55;12.48;;;21.70;99.90;;;;;;7337701;19;111315;-83
2022/05/20 09:21:42;;;;;;;24.15;12.95;;;21.80;99.90;;;;;;7339011;19;110250;-88
2022/05/20 09:24:21;;;;;;;24.60;13.50;;;21.90;99.90;;;;;;7343847;19;112221;-89
2022/05/20 09:27:08;;;;;;;26.00;14.18;;;21.90;99.90;;;;;;7337595;19;110305;-89
2022/05/20 09:29:46;;;;;;;38.03;16.37;;;22.10;99.90;;;;;;7339275;19;111972;-87
2022/05/20 09:32:34;;;;;;;23.90;14.88;;;22.10;99.90;;;;;;7339354;19;111789;-88
2022/05/20 09:35:04;;;;;;;23.27;16.35;;;22.10;99.90;;;;;;7339650;19;109706;-86
2022/05/20 09:37:34;;;;;;;40.42;18.92;;;22.00;99.90;;;;;;7336269;19;115317;-88
2022/05/20 09:40:32;;;;;;;31.92;17.90;;;22.10;99.90;;;;;;7336557;19;112127;-88
2022/05/20 09:43:29;;;;;;;39.38;18.15;;;22.20;99.90;;;;;;7332936;19;111442;-89
2022/05/20 09:45:59;;;;;;;32.42;17.38;;;22.30;99.90;;;;;;7334354;19;110691;-87
2022/05/20 09:48:38;;;;;;;34.55;19.00;;;22.40;99.90;;;;;;7341565;19;110970;-89
2022/05/20 09:51:15;;;;;;;26.02;17.52;;;22.40;99.90;;;;;;7336740;19;110707;-88
2022/05/20 09:53:58;;;;;;;38.53;18.27;;;22.40;99.90;;;;;;7335216;19;111875;-88
2022/05/20 09:56:30;;;;;;;36.30;19.50;;;22.50;99.90;;;;;;7335167;19;111085;-88
2022/05/20 09:59:25;;;;;;;34.80;19.52;;;22.50;99.90;;;;;;7334201;19;111294;-88
2022/05/20 10:01:59;;;;;;;41.97;20.55;;;22.50;99.90;;;;;;7337846;19;112272;-89
2022/05/20 10:04:56;;;;;;;36.30;21.90;;;22.40;99.90;;;;;;7342483;19;110300;-91
2022/05/20 10:07:54;;;;;;;40.00;20.40;;;22.40;99.90;;;;;;7340879;19;111921;-87
2022/05/20 10:10:29;;;;;;;;;;;22.40;99.90;;;;;;7338382;19;111851;-88
2022/05/20 10:12:59;;;;;;;39.47;20.88;;;22.30;99.90;;;;;;7350897;19;108175;-90
2022/05/20 10:15:33;;;;;;;51.47;21.42;;;22.30;99.90;;;;;;7336039;19;112019;-87
2022/05/20 10:18:10;;;;;;;55.42;20.33;;;22.40;99.90;;;;;;7338207;19;112322;-88
2022/05/20 10:21:15;;;;;;;31.83;19.90;;;22.40;99.90;;;;;;7335760;19;111814;-88
2022/05/20 10:23:58;;;;;;;43.17;22.70;;;22.50;99.90;;;;;;7338193;19;111933;-88
2022/05/20 10:26:57;;;;;;;43.45;21.95;;;22.50;99.90;;;;;;7336056;19;110462;-88
2022/05/20 10:32:52;;;;;;;37.00;22.92;;;22.60;99.90;;;;;;7338715;19;111940;-89
2022/05/20 10:35:23;;;;;;;45.45;22.17;;;22.60;99.90;;;;;;7331522;19;112287;-88
2022/05/20 10:38:37;;;;;;;46.85;22.55;;;22.60;99.90;;;;;;7329912;19;110885;-88
2022/05/20 10:41:12;;;;;;;36.35;22.45;;;22.80;99.90;;;;;;7324585;19;110678;-87
2022/05/20 10:50:12;;;;;;;44.03;24.20;;;22.90;99.90;;;;;;7332898;19;110497;-86
2022/05/20 10:53:20;;;;;;;36.63;23.23;;;22.90;99.90;;;;;;7337839;19;110397;-87
2022/05/20 10:56:03;;;;;;;49.03;25.23;;;22.90;99.90;;;;;;7336009;19;112078;-86
2022/05/20 10:58:47;;;;;;;40.33;22.60;;;22.90;99.90;;;;;;7338585;19;110151;-86
2022/05/20 11:01:31;;;;;;;38.25;23.02;;;23.00;99.90;;;;;;7347281;19;111517;-88
2022/05/20 11:04:25;;;;;;;57.78;24.75;;;23.00;99.90;;;;;;7335924;19;111051;-85
2022/05/20 11:07:07;;;;;;;44.58;23.92;;;23.10;99.90;;;;;;7338692;19;111563;-85
2022/05/20 11:09:48;;;;;;;54.42;23.77;;;23.00;99.90;;;;;;7337600;19;111705;-85
2022/05/20 11:13:02;;;;;;;47.78;23.75;;;22.90;99.90;;;;;;7340044;19;110704;-85
2022/05/20 11:15:41;;;;;;;38.25;23.63;;;22.90;99.90;;;;;;7338909;19;111679;-85
2022/05/20 11:18:46;;;;;;;43.60;23.17;;;22.90;99.90;;;;;;7340869;19;112640;-85
2022/05/20 11:21:44;;;;;;;39.75;23.67;;;22.80;99.90;;;;;;7342166;19;109827;-84
2022/05/20 11:24:26;;;;;;;35.80;23.23;;;22.60;99.90;;;;;;7337772;19;110435;-86
2022/05/20 11:26:59;;;;;;;34.25;22.42;;;22.60;99.90;;;;;;7340786;19;111833;-85
2022/05/20 11:29:29;;;;;;;43.47;24.08;;;22.60;99.90;;;;;;7337591;19;111800;-84
2022/05/20 11:32:02;;;;;;;39.50;23.88;;;22.60;99.90;;;;;;7337587;19;111784;-82
2022/05/20 11:34:39;;;;;;;37.95;23.67;;;22.50;99.90;;;;;;7335127;19;111213;-81
2022/05/20 11:37:57;;;;;;;42.47;25.63;;;22.50;99.90;;;;;;7337931;19;111902;-82
2022/05/20 11:40:43;;;;;;;62.53;29.02;;;22.50;99.90;;;;;;7335781;19;111823;-83
2022/05/20 11:43:30;;;;;;;57.40;31.50;;;22.40;99.90;;;;;;7336563;19;110352;-83
2022/05/20 11:46:25;;;;;;;51.17;30.40;;;22.20;99.90;;;;;;7335807;19;111722;-82
2022/05/20 11:48:58;;;;;;;49.38;30.42;;;22.10;99.90;;;;;;7336613;19;112230;-83
2022/05/20 11:51:51;;;;;;;56.38;31.02;;;22.00;99.90;;;;;;7342051;19;110258;-83
2022/05/20 11:54:26;;;;;;;51.78;30.17;;;21.90;99.90;;;;;;7336254;19;114747;-82
2022/05/20 11:57:07;;;;;;;50.65;31.38;;;21.60;99.90;;;;;;7336340;19;110569;-82
2022/05/20 11:59:40;;;;;;;59.47;32.10;;;21.60;99.90;;;;;;7337367;19;111405;-83
2022/05/20 12:02:11;;;;;;;52.78;30.00;;;21.50;99.90;;;;;;7339463;19;111969;-83
2022/05/20 12:04:40;;;;;;;47.28;30.27;;;21.40;99.90;;;;;;7335048;19;109873;-83
2022/05/20 12:07:14;;;;;;;54.88;31.33;;;21.40;99.90;;;;;;7336047;19;113745;-83
2022/05/20 12:09:46;;;;;;;48.85;28.83;;;21.40;99.90;;;;;;7339532;19;111845;-82
2022/05/20 12:12:25;;;;;;;45.10;28.35;;;21.40;99.90;;;;;;7340880;19;110977;-83
2022/05/20 12:15:01;;;;;;;47.78;29.58;;;21.50;99.90;;;;;;7345042;19;114717;-84
2022/05/20 12:17:50;;;;;;;52.83;30.23;;;21.70;99.90;;;;;;7340009;19;110751;-83
2022/05/20 12:26:40;;;;;;;48.58;28.77;;;22.00;99.90;;;;;;7337164;19;109994;-83
2022/05/20 12:29:35;;;;;;;39.97;26.23;;;22.20;99.90;;;;;;7336085;19;110570;-84
2022/05/20 12:32:29;;;;;;;39.33;26.50;;;22.50;99.90;;;;;;7337112;19;111764;-84
2022/05/20 12:35:28;;;;;;;35.38;24.73;;;22.80;99.90;;;;;;7336991;19;112626;-86
2022/05/20 12:38:18;;;;;;;36.67;23.65;;;22.90;99.90;;;;;;7338700;19;115074;-83
2022/05/20 12:40:50;;;;;;;36.42;23.73;;;23.00;99.90;;;;;;7341210;19;112209;-83
2022/05/20 12:43:17;;;;;;;41.95;24.98;;;23.10;99.90;;;;;;7335940;19;111773;-86
2022/05/20 12:45:53;;;;;;;33.83;23.35;;;23.30;99.90;;;;;;7333952;19;111751;-84
2022/05/20 12:48:29;;;;;;;32.90;21.47;;;23.40;99.90;;;;;;7336864;19;110123;-85
2022/05/20 12:51:08;;;;;;;27.85;20.70;;;23.50;99.90;;;;;;7338037;19;111460;-84
2022/05/20 12:53:38;;;;;;;30.77;21.77;;;23.60;99.90;;;;;;7336454;19;112519;-83
2022/05/20 12:56:05;;;;;;;32.17;21.55;;;23.50;99.90;;;;;;7336434;19;111075;-83
2022/05/20 12:58:35;;;;;;;28.75;19.73;;;23.60;99.90;;;;;;7339396;19;112098;-83
2022/05/20 13:01:04;;;;;;;24.88;17.70;;;23.60;99.90;;;;;;7344075;19;112188;-84
2022/05/20 13:03:42;;;;;;;17.92;13.82;;;23.70;99.90;;;;;;7338473;19;111347;-84
2022/05/20 13:06:21;;;;;;;15.02;10.05;;;23.70;99.90;;;;;;7335087;19;111845;-84
2022/05/20 13:08:58;;;;;;;8.20;7.25;;;23.70;99.90;;;;;;7337250;19;110318;-84
2022/05/20 13:11:25;;;;;;;6.38;4.90;;;23.60;99.90;;;;;;7341217;19;111336;-85
2022/05/20 13:13:58;;;;;;;7.07;5.18;;;23.40;99.90;;;;;;7338512;19;109420;-84
2022/05/20 13:16:25;;;;;;;5.72;5.13;;;23.30;99.90;;;;;;7339498;19;109056;-84
2022/05/20 13:19:04;;;;;;;3.88;3.08;;;23.30;99.90;;;;;;7339496;19;107855;-85
2022/05/20 13:21:53;;;;;;;3.58;1.83;;;23.20;99.90;;;;;;7338886;19;107781;-83
2022/05/20 13:24:27;;;;;;;3.45;1.63;;;23.10;99.90;;;;;;7341180;19;109359;-83
2022/05/20 13:27:10;;;;;;;2.42;1.85;;;22.90;99.90;;;;;;7335537;19;110669;-84
2022/05/20 13:29:39;;;;;;;2.47;1.63;;;22.60;99.90;;;;;;7338493;19;110145;-83
2022/05/20 13:32:15;;;;;;;4.03;1.70;;;22.60;99.90;;;;;;7334710;19;108697;-83